College Hill, Kentucky
Current Conditions -  °F | °C
As of 4:55 AM on Friday 24 Oct 2014 (Local Time) from KI39 Reporting Station
Clear Clear  
Wind Chill: 39°   Ceiling: Unl
Heat Index: 39°   Visibility: 5mi
Dew Point: 37°   Wind: 3mph
Humidity: 93%   Direction: 130°SE
Pressure: 30.11"   Gusts: NA
Location:  37.7874°N, 84.1208°W
Report Text: KI39 240855Z AUTO 13003KT 5SM CLR 04/03 A3011 RMK AO2
Loading
Personal Weather Stations






























Interactive Weather Map
Tropical Storm Tracking
New forecast layout! Learn more

10-Day Weather Forecast

Advertisements
Track Severe Weather on mobile